createdAt,value
2018-05-01T04:15:51.420Z,9.30
2018-05-01T04:25:44.168Z,9.10
2018-05-01T09:10:54.631Z,11.80
2018-05-01T09:40:39.258Z,12.50
2018-05-01T09:48:06.402Z,12.80
2018-05-01T10:02:58.692Z,13.60
2018-05-01T10:15:22.305Z,13.90
2018-05-01T10:22:47.772Z,14.00
2018-05-01T10:30:15.322Z,14.40
2018-05-01T10:35:12.100Z,15.90
2018-05-01T10:40:10.315Z,16.30
2018-05-01T10:47:36.034Z,15.30
2018-05-01T10:55:01.368Z,15.50
2018-05-01T10:59:59.568Z,15.60
2018-05-01T11:04:56.680Z,15.60
2018-05-01T11:12:21.985Z,15.50
2018-05-01T11:19:49.326Z,15.40
2018-05-01T11:24:48.193Z,15.30
2018-05-01T11:29:46.329Z,15.70
2018-05-01T11:34:44.403Z,15.90
2018-05-01T11:39:42.536Z,16.10
2018-05-01T11:44:39.384Z,16.20
2018-05-01T11:49:37.649Z,16.20
2018-05-01T12:04:31.322Z,14.60
2018-05-01T12:09:28.810Z,15.10
2018-05-01T12:14:25.784Z,15.40
2018-05-01T12:21:50.961Z,15.80
2018-05-01T12:26:49.037Z,15.90
2018-05-01T12:31:45.841Z,16.10
2018-05-01T12:36:44.757Z,16.40
2018-05-01T12:41:41.615Z,16.50
2018-05-01T12:46:39.758Z,16.20
2018-05-01T12:51:37.899Z,16.10
2018-05-01T12:56:36.009Z,16.30
2018-05-01T13:04:01.988Z,16.50
2018-05-01T13:09:00.217Z,16.80
2018-05-01T13:16:24.906Z,16.00
2018-05-01T13:23:50.705Z,15.90
2018-05-01T13:31:15.979Z,15.90
2018-05-01T13:38:41.517Z,15.70
2018-05-01T13:43:38.285Z,15.80
2018-05-01T13:48:36.466Z,15.90
2018-05-01T13:53:33.308Z,15.70
2018-05-01T14:00:58.637Z,15.90
2018-05-01T14:08:23.792Z,15.90
2018-05-01T14:15:49.301Z,15.90
2018-05-01T14:20:48.690Z,16.00
2018-05-01T14:25:46.951Z,16.40
2018-05-01T14:30:45.027Z,16.30
2018-05-01T14:35:43.153Z,16.30
2018-05-01T14:40:42.041Z,16.40
2018-05-01T14:45:40.122Z,16.40
2018-05-01T14:50:36.891Z,16.20
2018-05-01T14:55:36.292Z,16.20
2018-05-01T15:00:35.318Z,16.30
2018-05-01T15:05:33.423Z,16.00
2018-05-01T15:10:31.822Z,16.10
2018-05-01T15:15:29.005Z,15.80
2018-05-01T15:20:27.803Z,15.70
2018-05-01T15:25:26.095Z,15.70
2018-05-01T15:30:22.992Z,15.90
2018-05-01T15:35:21.026Z,16.00
2018-05-01T15:40:20.004Z,16.10
2018-05-01T15:45:18.152Z,16.20
2018-05-01T15:50:16.241Z,15.80
2018-05-01T15:55:14.426Z,15.60
2018-05-01T16:00:12.544Z,15.70
2018-05-01T16:07:38.064Z,15.70
2018-05-01T16:15:05.235Z,15.20
2018-05-01T16:22:30.630Z,15.20
2018-05-01T16:29:56.112Z,15.10
2018-05-01T16:37:23.834Z,14.60
2018-05-01T23:17:10.909Z,8.20
